createdAt,value
2022-10-09T00:01:47.538Z,100921.37
2022-10-09T00:04:49.404Z,100912.44
2022-10-09T00:07:51.189Z,100915.69
2022-10-09T00:10:53.065Z,100916.53
2022-10-09T00:13:57.388Z,100912.53
2022-10-09T00:16:59.301Z,100907.06
2022-10-09T00:20:01.214Z,100910.88
2022-10-09T00:23:03.038Z,100905.19
2022-10-09T00:26:05.046Z,100906.28
2022-10-09T00:29:06.849Z,100911.91
2022-10-09T00:32:08.633Z,100900.44
2022-10-09T00:35:10.461Z,100897.41
2022-10-09T00:38:12.245Z,100909.78
2022-10-09T00:41:24.138Z,100904.44
2022-10-09T00:44:44.641Z,100892.91
2022-10-09T00:47:50.899Z,100884.63
2022-10-09T00:50:53.487Z,100875.31
2022-10-09T00:53:55.317Z,100875.06
2022-10-09T00:56:57.176Z,100875.03
2022-10-09T00:59:59.499Z,100874.19
2022-10-09T01:03:01.281Z,100874.00
2022-10-09T01:06:07.934Z,100869.16
2022-10-09T01:09:13.978Z,100874.72
2022-10-09T01:12:39.254Z,100873.06
2022-10-09T01:15:44.026Z,100864.03
2022-10-09T01:18:49.327Z,100854.13
2022-10-09T01:21:53.255Z,100858.38
2022-10-09T01:24:55.498Z,100859.59
2022-10-09T01:27:57.339Z,100867.53
2022-10-09T01:31:00.245Z,100868.03
2022-10-09T01:34:02.113Z,100867.13
2022-10-09T01:37:03.923Z,100868.69
2022-10-09T01:40:06.005Z,100861.91
2022-10-09T01:43:07.794Z,100857.72
2022-10-09T01:46:19.926Z,100861.13
2022-10-09T01:49:41.229Z,100860.50
2022-10-09T01:52:43.005Z,100861.97
2022-10-09T01:55:47.991Z,100862.56
2022-10-09T01:58:57.133Z,100879.50
2022-10-09T02:01:59.120Z,100874.50
2022-10-09T02:05:01.079Z,100879.38
2022-10-09T02:08:02.995Z,100881.25
2022-10-09T02:11:05.078Z,100877.50
2022-10-09T02:14:06.893Z,100874.97
2022-10-09T02:17:10.230Z,100886.56
2022-10-09T02:20:25.763Z,100879.19
2022-10-09T02:23:27.576Z,100883.75
2022-10-09T02:26:29.371Z,100881.34
2022-10-09T02:29:31.200Z,100884.75
2022-10-09T02:32:33.016Z,100884.37
2022-10-09T02:35:34.835Z,100890.00
2022-10-09T02:38:36.711Z,100888.31
2022-10-09T02:41:38.605Z,100890.69
2022-10-09T02:44:40.414Z,100894.34
2022-10-09T02:47:42.256Z,100900.84
2022-10-09T02:50:44.086Z,100898.22
2022-10-09T02:53:45.885Z,100905.34
2022-10-09T02:56:47.777Z,100903.72
2022-10-09T02:59:49.662Z,100908.00
2022-10-09T03:02:51.897Z,100904.72
2022-10-09T03:06:01.054Z,100910.88
2022-10-09T03:09:02.969Z,100916.72
2022-10-09T03:12:04.965Z,100905.13
2022-10-09T03:15:07.113Z,100912.41
2022-10-09T03:18:08.931Z,100914.47
2022-10-09T03:21:12.384Z,100907.91
2022-10-09T03:24:14.340Z,100917.81
2022-10-09T03:27:16.662Z,100915.91
2022-10-09T03:30:18.539Z,100926.69
2022-10-09T03:33:20.415Z,100923.84
2022-10-09T03:36:22.251Z,100932.37
2022-10-09T03:39:24.073Z,100927.88
2022-10-09T03:42:25.927Z,100925.75
2022-10-09T03:45:27.707Z,100922.91
2022-10-09T03:48:29.506Z,100924.50
2022-10-09T03:51:31.373Z,100925.56
2022-10-09T03:54:33.162Z,100935.34
2022-10-09T03:57:35.202Z,100937.03
2022-10-09T04:00:37.157Z,100931.53
2022-10-09T04:03:39.062Z,100945.03
2022-10-09T04:06:40.924Z,100948.19
2022-10-09T04:09:42.733Z,100956.53
2022-10-09T04:12:44.606Z,100951.31
2022-10-09T04:15:49.927Z,100934.75
2022-10-09T04:18:51.854Z,100938.44
2022-10-09T04:21:53.750Z,100941.34
2022-10-09T04:24:55.568Z,100940.59
2022-10-09T04:27:57.366Z,100938.09
2022-10-09T04:30:59.206Z,100934.03
2022-10-09T04:34:01.114Z,100944.34
2022-10-09T04:37:02.891Z,100948.53
2022-10-09T04:40:04.890Z,100950.50
2022-10-09T04:43:06.731Z,100958.19
2022-10-09T04:46:10.178Z,100963.47
2022-10-09T04:49:13.253Z,100944.97
2022-10-09T04:52:15.158Z,100957.28
2022-10-09T04:55:16.986Z,100968.41
2022-10-09T04:58:18.797Z,100990.69
2022-10-09T05:01:24.583Z,101012.00
2022-10-09T05:04:26.419Z,101004.44
2022-10-09T05:07:28.280Z,101006.09
2022-10-09T05:10:30.860Z,101006.19
2022-10-09T05:13:33.369Z,100994.00
2022-10-09T05:16:49.378Z,100990.09
2022-10-09T05:19:57.016Z,100982.69
2022-10-09T05:22:59.001Z,100995.19
2022-10-09T05:26:01.332Z,100989.06
2022-10-09T05:29:03.460Z,100994.84
2022-10-09T05:32:05.381Z,101008.16
2022-10-09T05:35:07.341Z,101015.50
2022-10-09T05:38:09.158Z,101013.25
2022-10-09T05:41:12.131Z,101020.78
2022-10-09T05:44:13.920Z,101025.09
2022-10-09T05:47:17.932Z,101033.03
2022-10-09T05:50:19.941Z,101033.44
2022-10-09T05:53:21.801Z,101039.75
2022-10-09T05:56:27.450Z,101039.59
2022-10-09T05:59:29.277Z,101036.06
2022-10-09T06:02:31.145Z,101038.50
2022-10-09T06:05:32.980Z,101044.56
2022-10-09T06:08:35.514Z,101056.88
2022-10-09T06:11:38.401Z,101047.63
2022-10-09T06:14:40.264Z,101056.34
2022-10-09T06:17:42.099Z,101047.94
2022-10-09T06:20:52.953Z,101051.59
2022-10-09T06:23:55.721Z,101057.66
2022-10-09T06:26:57.799Z,101065.88
2022-10-09T06:29:59.923Z,101063.38
2022-10-09T06:33:01.773Z,101079.88
2022-10-09T06:36:10.067Z,101077.84
2022-10-09T06:39:12.414Z,101069.50
2022-10-09T06:42:14.277Z,101062.94
2022-10-09T06:45:16.088Z,101073.00
2022-10-09T06:48:17.902Z,101074.37
2022-10-09T06:51:20.578Z,101079.50
2022-10-09T06:54:22.566Z,101090.97
2022-10-09T06:57:24.353Z,101090.00
2022-10-09T07:00:26.251Z,101096.00
2022-10-09T07:03:28.169Z,101083.16
2022-10-09T07:06:31.041Z,101089.22
2022-10-09T07:09:32.815Z,101080.50
2022-10-09T07:12:35.049Z,101087.41
2022-10-09T07:15:37.019Z,101100.78
2022-10-09T07:18:39.011Z,101089.78
2022-10-09T07:21:41.817Z,101081.34
2022-10-09T07:24:43.649Z,101089.59
2022-10-09T07:27:45.499Z,101082.62
2022-10-09T07:30:47.331Z,101086.34
2022-10-09T07:33:49.465Z,101095.63
2022-10-09T07:36:51.377Z,101092.28
2022-10-09T07:39:53.196Z,101097.31
2022-10-09T07:42:54.991Z,101106.38
2022-10-09T07:46:00.179Z,101113.66
2022-10-09T07:49:02.327Z,101111.06
2022-10-09T07:52:04.132Z,101119.00
2022-10-09T07:55:06.057Z,101120.63
2022-10-09T07:58:07.861Z,101119.44
2022-10-09T08:01:10.070Z,101122.13
2022-10-09T08:04:12.036Z,101117.09
2022-10-09T08:07:13.909Z,101125.37
2022-10-09T08:10:15.716Z,101121.34
2022-10-09T08:13:17.496Z,101124.56
2022-10-09T08:16:19.818Z,101130.44
2022-10-09T08:19:21.671Z,101128.72
2022-10-09T08:22:23.737Z,101127.50
2022-10-09T08:25:25.564Z,101128.91
2022-10-09T08:28:27.420Z,101131.97
2022-10-09T08:31:29.466Z,101132.41
2022-10-09T08:34:31.259Z,101130.50
2022-10-09T08:37:33.162Z,101145.34
2022-10-09T08:40:38.018Z,101145.91
2022-10-09T08:43:41.929Z,101143.25
2022-10-09T08:46:43.785Z,101136.97
2022-10-09T08:49:45.561Z,101145.19
2022-10-09T08:52:50.060Z,101144.12
2022-10-09T08:55:56.401Z,101151.78
2022-10-09T08:58:58.245Z,101156.28
2022-10-09T09:02:03.162Z,101162.53
2022-10-09T09:05:05.085Z,101165.94
2022-10-09T09:08:26.041Z,101158.28
2022-10-09T09:11:31.113Z,101162.13
2022-10-09T09:14:48.310Z,101162.59
2022-10-09T09:18:09.027Z,101165.19
2022-10-09T09:21:10.834Z,101169.19
2022-10-09T09:24:14.266Z,101173.66
2022-10-09T09:27:20.586Z,101178.50
2022-10-09T09:30:28.040Z,101172.53
2022-10-09T09:33:36.229Z,101172.78
2022-10-09T09:36:40.467Z,101176.31
2022-10-09T09:43:05.630Z,101182.47
2022-10-09T09:46:10.532Z,101195.56
2022-10-09T09:49:16.366Z,101172.19
2022-10-09T09:52:18.183Z,101187.28
2022-10-09T09:55:24.498Z,101168.50
2022-10-09T09:58:29.445Z,101174.69
2022-10-09T10:01:31.434Z,101184.59
2022-10-09T10:04:33.220Z,101175.03
2022-10-09T10:07:36.067Z,101170.00
2022-10-09T10:10:37.900Z,101172.87
2022-10-09T10:13:45.993Z,101168.34
2022-10-09T10:16:51.412Z,101170.03
2022-10-09T10:19:53.325Z,101159.00
2022-10-09T10:22:55.762Z,101166.78
2022-10-09T10:25:57.945Z,101177.47
2022-10-09T10:29:02.782Z,101168.63
2022-10-09T10:32:13.708Z,101175.94
2022-10-09T10:35:17.373Z,101171.41
2022-10-09T10:38:22.590Z,101175.09
2022-10-09T10:41:26.272Z,101170.25
2022-10-09T10:44:47.584Z,101174.66
2022-10-09T10:47:50.347Z,101173.50
2022-10-09T10:50:58.576Z,101177.59
2022-10-09T10:54:03.147Z,101172.34
2022-10-09T10:57:17.330Z,101174.84
2022-10-09T11:00:19.124Z,101176.53
2022-10-09T11:03:30.131Z,101181.69
2022-10-09T11:06:37.853Z,101186.25
2022-10-09T11:09:39.821Z,101179.22
2022-10-09T11:12:48.179Z,101182.19
2022-10-09T11:15:56.288Z,101177.16
2022-10-09T11:19:04.103Z,101174.84
2022-10-09T11:22:24.767Z,101164.25
2022-10-09T11:25:31.031Z,101174.41
2022-10-09T11:28:38.342Z,101161.34
2022-10-09T11:31:48.637Z,101166.19
2022-10-09T11:35:07.333Z,101159.97
2022-10-09T11:38:18.755Z,101161.28
2022-10-09T11:41:20.675Z,101161.34
2022-10-09T11:44:31.878Z,101162.56
2022-10-09T11:47:42.330Z,101153.31
2022-10-09T11:50:47.252Z,101152.81
2022-10-09T11:53:49.076Z,101146.13
2022-10-09T11:56:58.404Z,101146.53
2022-10-09T12:00:07.542Z,101152.59
2022-10-09T12:03:20.190Z,101154.78
2022-10-09T12:06:22.412Z,101152.53
2022-10-09T12:09:24.977Z,101145.13
2022-10-09T12:12:26.972Z,101144.38
2022-10-09T12:15:37.027Z,101141.25
2022-10-09T12:18:39.523Z,101148.09
2022-10-09T12:21:46.788Z,101144.75
2022-10-09T12:24:49.500Z,101136.22
2022-10-09T12:27:53.096Z,101142.56
2022-10-09T12:30:56.078Z,101130.47
2022-10-09T12:33:59.692Z,101138.91
2022-10-09T12:37:09.798Z,101138.91
2022-10-09T12:40:16.127Z,101134.87
2022-10-09T12:43:18.614Z,101143.25
2022-10-09T12:46:26.746Z,101138.87
2022-10-09T12:49:28.610Z,101135.97
2022-10-09T12:52:31.146Z,101132.66
2022-10-09T12:55:33.010Z,101118.75
2022-10-09T12:58:36.829Z,101133.84
2022-10-09T13:01:39.452Z,101122.44
2022-10-09T13:04:41.554Z,101108.31
2022-10-09T13:07:48.328Z,101109.62
2022-10-09T13:10:50.629Z,101116.59
2022-10-09T13:13:52.693Z,101097.47
2022-10-09T13:16:54.612Z,101100.00
2022-10-09T13:19:57.375Z,101095.38
2022-10-09T13:23:00.355Z,101083.78
2022-10-09T13:26:03.709Z,101078.84
2022-10-09T13:29:06.513Z,101078.50
2022-10-09T13:32:10.705Z,101081.94
2022-10-09T13:35:12.687Z,101075.22
2022-10-09T13:38:15.778Z,101072.38
2022-10-09T13:41:21.373Z,101075.88
2022-10-09T13:44:25.412Z,101070.34
2022-10-09T13:47:27.186Z,101073.31
2022-10-09T13:50:29.825Z,101085.09
2022-10-09T13:53:31.667Z,101075.59
2022-10-09T13:56:33.540Z,101081.63
2022-10-09T13:59:36.230Z,101081.06
2022-10-09T14:02:38.133Z,101082.44
2022-10-09T14:05:41.458Z,101076.72
2022-10-09T14:08:43.455Z,101070.19
2022-10-09T14:11:45.619Z,101074.44
2022-10-09T14:14:47.458Z,101074.44
2022-10-09T14:17:49.449Z,101079.81
2022-10-09T14:20:51.550Z,101076.28
2022-10-09T14:23:54.053Z,101075.97
2022-10-09T14:26:55.923Z,101076.63
2022-10-09T14:29:57.785Z,101073.94
2022-10-09T14:32:59.820Z,101076.28
2022-10-09T14:36:08.207Z,101068.31
2022-10-09T14:39:10.113Z,101078.19
2022-10-09T14:42:12.076Z,101076.66
2022-10-09T14:45:14.061Z,101078.56
2022-10-09T14:48:15.871Z,101084.37
2022-10-09T14:51:21.144Z,101078.00
2022-10-09T14:54:23.143Z,101077.97
2022-10-09T14:57:24.939Z,101081.97
2022-10-09T15:00:26.857Z,101081.37
2022-10-09T15:03:29.430Z,101075.44
2022-10-09T15:06:31.788Z,101080.38
2022-10-09T15:09:33.663Z,101084.19
2022-10-09T15:12:35.536Z,101078.06
2022-10-09T15:15:37.543Z,101082.62
2022-10-09T15:18:39.454Z,101088.78
2022-10-09T15:21:41.769Z,101092.66
2022-10-09T15:24:43.669Z,101094.19
2022-10-09T15:27:45.530Z,101098.69
2022-10-09T15:30:48.481Z,101095.34
2022-10-09T15:33:51.251Z,101102.41
2022-10-09T15:36:53.225Z,101113.09
2022-10-09T15:39:55.220Z,101111.53
2022-10-09T15:42:57.048Z,101110.38
2022-10-09T15:46:03.467Z,101104.22
2022-10-09T15:49:06.208Z,101095.28
2022-10-09T15:52:08.067Z,101107.44
2022-10-09T15:55:10.010Z,101115.03
2022-10-09T15:58:12.072Z,101112.25
2022-10-09T16:01:14.584Z,101108.91
2022-10-09T16:04:16.462Z,101114.25
2022-10-09T16:07:18.275Z,101119.84
2022-10-09T16:10:20.169Z,101122.34
2022-10-09T16:13:22.734Z,101128.19
2022-10-09T16:16:25.175Z,101120.31
2022-10-09T16:19:27.004Z,101126.28
2022-10-09T16:22:28.859Z,101138.91
2022-10-09T16:25:30.966Z,101137.00
2022-10-09T16:28:33.385Z,101140.84
2022-10-09T16:31:35.442Z,101140.09
2022-10-09T16:34:37.527Z,101142.78
2022-10-09T16:37:39.429Z,101156.47
2022-10-09T16:44:10.500Z,101158.38
2022-10-09T16:47:13.977Z,101163.09
2022-10-09T16:50:15.790Z,101164.34
2022-10-09T16:53:17.638Z,101161.78
2022-10-09T16:56:20.655Z,101165.53
2022-10-09T16:59:22.482Z,101164.94
2022-10-09T17:02:24.302Z,101184.59
2022-10-09T17:05:26.380Z,101182.31
2022-10-09T17:08:28.844Z,101182.34
2022-10-09T17:11:30.816Z,101183.59
2022-10-09T17:14:34.982Z,101184.03
2022-10-09T17:17:38.483Z,101187.28
2022-10-09T17:20:40.442Z,101188.25
2022-10-09T17:23:42.441Z,101191.03
2022-10-09T17:26:44.287Z,101189.25
2022-10-09T17:29:46.153Z,101189.50
2022-10-09T17:32:48.480Z,101204.97
2022-10-09T17:35:50.529Z,101199.41
2022-10-09T17:38:52.536Z,101198.81
2022-10-09T17:41:54.376Z,101200.16
2022-10-09T17:44:56.183Z,101206.16
2022-10-09T17:47:58.042Z,101214.97
2022-10-09T17:51:00.166Z,101208.12
2022-10-09T17:54:04.934Z,101215.47
2022-10-09T17:57:12.480Z,101220.09
2022-10-09T18:00:17.528Z,101225.69
2022-10-09T18:03:22.785Z,101221.19
2022-10-09T18:06:24.670Z,101205.66
2022-10-09T18:09:26.515Z,101217.53
2022-10-09T18:12:28.369Z,101221.34
2022-10-09T18:15:30.171Z,101219.72
2022-10-09T18:18:32.070Z,101221.34
2022-10-09T18:21:35.135Z,101223.81
2022-10-09T18:24:37.278Z,101227.91
2022-10-09T18:27:39.068Z,101228.09
2022-10-09T18:30:46.204Z,101231.34
2022-10-09T18:33:48.044Z,101232.38
2022-10-09T18:36:51.968Z,101238.91
2022-10-09T18:39:53.887Z,101237.03
2022-10-09T18:42:55.710Z,101243.56
2022-10-09T18:45:58.053Z,101244.66
2022-10-09T18:49:02.908Z,101248.00
2022-10-09T18:52:04.729Z,101260.78
2022-10-09T18:55:06.942Z,101263.31
2022-10-09T18:58:08.783Z,101265.91
2022-10-09T19:01:10.682Z,101274.84
2022-10-09T19:04:12.514Z,101272.09
2022-10-09T19:07:14.343Z,101275.31
2022-10-09T19:10:16.185Z,101267.13
2022-10-09T19:13:18.394Z,101277.22
2022-10-09T19:16:20.252Z,101276.09
2022-10-09T19:19:22.067Z,101278.22
2022-10-09T19:22:24.220Z,101288.16
2022-10-09T19:25:26.755Z,101290.09
2022-10-09T19:28:31.193Z,101287.19
2022-10-09T19:31:33.623Z,101282.78
2022-10-09T19:34:35.504Z,101299.22
2022-10-09T19:37:37.609Z,101303.91
2022-10-09T19:40:39.459Z,101300.81
2022-10-09T19:43:41.482Z,101303.91
2022-10-09T19:46:43.373Z,101312.25
2022-10-09T19:49:45.244Z,101310.66
2022-10-09T19:52:47.075Z,101319.22
2022-10-09T19:55:48.965Z,101318.41
2022-10-09T19:58:50.790Z,101329.84
2022-10-09T20:01:57.232Z,101335.88
2022-10-09T20:04:59.433Z,101333.38
2022-10-09T20:08:01.457Z,101332.50
2022-10-09T20:11:03.714Z,101337.56
2022-10-09T20:14:05.629Z,101335.63
2022-10-09T20:17:07.477Z,101342.31
2022-10-09T20:20:09.623Z,101336.62
2022-10-09T20:23:11.428Z,101339.22
2022-10-09T20:26:14.454Z,101345.78
2022-10-09T20:29:16.268Z,101342.72
2022-10-09T20:32:18.675Z,101345.94
2022-10-09T20:35:20.577Z,101345.72
2022-10-09T20:38:25.704Z,101340.69
2022-10-09T20:41:28.818Z,101341.78
2022-10-09T20:44:30.625Z,101353.31
2022-10-09T20:47:32.465Z,101352.50
2022-10-09T20:50:38.006Z,101353.13
2022-10-09T20:53:39.824Z,101357.75
2022-10-09T20:56:41.674Z,101346.53
2022-10-09T20:59:43.893Z,101351.72
2022-10-09T21:02:45.689Z,101353.38
2022-10-09T21:05:47.514Z,101365.31
2022-10-09T21:08:49.679Z,101358.72
2022-10-09T21:11:51.577Z,101360.88
2022-10-09T21:14:53.390Z,101361.63
2022-10-09T21:17:55.215Z,101370.94
2022-10-09T21:20:57.059Z,101375.56
2022-10-09T21:23:59.453Z,101367.22
2022-10-09T21:27:01.377Z,101374.72
2022-10-09T21:30:03.329Z,101373.53
2022-10-09T21:33:05.155Z,101373.88
2022-10-09T21:36:10.784Z,101368.31
2022-10-09T21:39:12.640Z,101369.22
2022-10-09T21:42:14.428Z,101365.37
2022-10-09T21:45:16.553Z,101362.37
2022-10-09T21:48:18.512Z,101364.63
2022-10-09T21:51:20.287Z,101370.47
2022-10-09T21:54:22.113Z,101358.19
2022-10-09T21:57:23.923Z,101361.94
2022-10-09T22:00:25.843Z,101356.56
2022-10-09T22:03:28.469Z,101353.81
2022-10-09T22:06:30.264Z,101359.09
2022-10-09T22:09:32.241Z,101356.50
2022-10-09T22:12:34.118Z,101344.44
2022-10-09T22:15:39.741Z,101364.38
2022-10-09T22:18:41.684Z,101366.50
2022-10-09T22:21:43.525Z,101354.81
2022-10-09T22:24:45.385Z,101364.72
2022-10-09T22:27:47.178Z,101369.69
2022-10-09T22:30:48.984Z,101366.13
2022-10-09T22:33:51.358Z,101366.06
2022-10-09T22:36:53.178Z,101374.62
2022-10-09T22:39:55.033Z,101378.28
2022-10-09T22:42:56.864Z,101378.28
2022-10-09T22:45:58.708Z,101374.28
2022-10-09T22:49:00.789Z,101366.25
2022-10-09T22:52:02.612Z,101376.25
2022-10-09T22:55:04.610Z,101376.66
2022-10-09T22:58:06.447Z,101374.53
2022-10-09T23:01:16.068Z,101379.53
2022-10-09T23:04:18.132Z,101379.31
2022-10-09T23:07:19.986Z,101379.91
2022-10-09T23:10:21.792Z,101379.06
2022-10-09T23:13:23.706Z,101384.34
2022-10-09T23:16:26.200Z,101379.22
2022-10-09T23:19:28.012Z,101393.59
2022-10-09T23:22:29.907Z,101390.00
2022-10-09T23:25:31.776Z,101396.16
2022-10-09T23:28:34.030Z,101394.53
2022-10-09T23:31:36.019Z,101388.41
2022-10-09T23:34:37.846Z,101391.19
2022-10-09T23:37:39.705Z,101398.56
2022-10-09T23:40:41.592Z,101390.31
2022-10-09T23:43:44.089Z,101396.59
2022-10-09T23:46:45.900Z,101397.91
2022-10-09T23:49:47.708Z,101404.44
2022-10-09T23:52:49.680Z,101391.31
2022-10-09T23:55:51.726Z,101391.94
2022-10-09T23:58:53.857Z,101389.91
